sensor_id;sensor_type;location;lat;lon;timestamp;P1;durP1;ratioP1;P2;durP2;ratioP2
70312;SDS011;57723;51.698;5.344;2023-10-09T00:00:45;11.52;;;5.10;;
70312;SDS011;57723;51.698;5.344;2023-10-09T00:03:19;8.93;;;4.77;;
70312;SDS011;57723;51.698;5.344;2023-10-09T00:05:49;9.75;;;4.88;;
70312;SDS011;57723;51.698;5.344;2023-10-09T00:08:26;9.30;;;4.20;;
70312;SDS011;57723;51.698;5.344;2023-10-09T00:10:58;9.48;;;4.68;;
70312;SDS011;57723;51.698;5.344;2023-10-09T00:13:41;8.30;;;4.50;;
70312;SDS011;57723;51.698;5.344;2023-10-09T00:16:18;12.32;;;5.15;;
70312;SDS011;57723;51.698;5.344;2023-10-09T00:19:02;8.45;;;4.93;;
70312;SDS011;57723;51.698;5.344;2023-10-09T00:21:46;8.70;;;4.57;;
70312;SDS011;57723;51.698;5.344;2023-10-09T00:24:12;8.35;;;4.63;;
70312;SDS011;57723;51.698;5.344;2023-10-09T00:26:50;9.07;;;5.07;;
70312;SDS011;57723;51.698;5.344;2023-10-09T00:29:16;10.70;;;4.68;;
70312;SDS011;57723;51.698;5.344;2023-10-09T00:31:50;9.00;;;4.70;;
70312;SDS011;57723;51.698;5.344;2023-10-09T00:34:17;9.53;;;4.80;;
70312;SDS011;57723;51.698;5.344;2023-10-09T00:36:47;9.35;;;4.75;;
70312;SDS011;57723;51.698;5.344;2023-10-09T00:39:20;10.00;;;4.03;;
70312;SDS011;57723;51.698;5.344;2023-10-09T00:42:06;11.60;;;4.70;;
70312;SDS011;57723;51.698;5.344;2023-10-09T00:44:39;9.82;;;4.38;;
70312;SDS011;57723;51.698;5.344;2023-10-09T00:47:06;12.40;;;4.63;;
70312;SDS011;57723;51.698;5.344;2023-10-09T00:49:48;9.48;;;4.20;;
70312;SDS011;57723;51.698;5.344;2023-10-09T00:52:15;12.05;;;4.72;;
70312;SDS011;57723;51.698;5.344;2023-10-09T00:55:01;7.97;;;4.35;;
70312;SDS011;57723;51.698;5.344;2023-10-09T00:57:39;8.80;;;4.15;;
70312;SDS011;57723;51.698;5.344;2023-10-09T01:00:06;7.53;;;4.00;;
70312;SDS011;57723;51.698;5.344;2023-10-09T01:02:51;10.00;;;3.78;;
70312;SDS011;57723;51.698;5.344;2023-10-09T01:05:35;7.68;;;4.35;;
70312;SDS011;57723;51.698;5.344;2023-10-09T01:08:01;8.38;;;4.72;;
70312;SDS011;57723;51.698;5.344;2023-10-09T01:10:43;7.88;;;4.32;;
70312;SDS011;57723;51.698;5.344;2023-10-09T01:13:27;8.63;;;4.20;;
70312;SDS011;57723;51.698;5.344;2023-10-09T01:16:05;10.02;;;3.70;;
70312;SDS011;57723;51.698;5.344;2023-10-09T01:18:33;13.35;;;4.40;;
70312;SDS011;57723;51.698;5.344;2023-10-09T01:21:03;10.85;;;4.00;;
70312;SDS011;57723;51.698;5.344;2023-10-09T01:23:31;7.37;;;4.07;;
70312;SDS011;57723;51.698;5.344;2023-10-09T01:25:57;13.27;;;4.10;;
70312;SDS011;57723;51.698;5.344;2023-10-09T01:28:25;6.60;;;3.97;;
70312;SDS011;57723;51.698;5.344;2023-10-09T01:31:01;12.02;;;4.60;;
70312;SDS011;57723;51.698;5.344;2023-10-09T01:33:27;9.00;;;3.73;;
70312;SDS011;57723;51.698;5.344;2023-10-09T01:35:53;6.28;;;3.47;;
70312;SDS011;57723;51.698;5.344;2023-10-09T01:38:24;10.38;;;3.70;;
70312;SDS011;57723;51.698;5.344;2023-10-09T01:41:00;7.65;;;3.80;;
70312;SDS011;57723;51.698;5.344;2023-10-09T01:43:46;9.30;;;3.60;;
70312;SDS011;57723;51.698;5.344;2023-10-09T01:46:15;7.10;;;3.50;;
70312;SDS011;57723;51.698;5.344;2023-10-09T01:48:45;8.20;;;3.63;;
70312;SDS011;57723;51.698;5.344;2023-10-09T01:51:14;10.73;;;3.60;;
70312;SDS011;57723;51.698;5.344;2023-10-09T01:53:43;8.63;;;3.65;;
70312;SDS011;57723;51.698;5.344;2023-10-09T01:56:13;9.13;;;3.90;;
70312;SDS011;57723;51.698;5.344;2023-10-09T01:58:42;9.40;;;3.60;;
70312;SDS011;57723;51.698;5.344;2023-10-09T02:01:15;8.75;;;3.72;;
70312;SDS011;57723;51.698;5.344;2023-10-09T02:03:41;6.10;;;3.63;;
70312;SDS011;57723;51.698;5.344;2023-10-09T02:06:08;11.55;;;3.75;;
70312;SDS011;57723;51.698;5.344;2023-10-09T02:08:57;7.43;;;3.50;;
70312;SDS011;57723;51.698;5.344;2023-10-09T02:11:24;6.97;;;3.70;;
70312;SDS011;57723;51.698;5.344;2023-10-09T02:14:04;8.38;;;3.75;;
70312;SDS011;57723;51.698;5.344;2023-10-09T02:16:44;7.15;;;3.28;;
70312;SDS011;57723;51.698;5.344;2023-10-09T02:19:09;7.67;;;3.70;;
70312;SDS011;57723;51.698;5.344;2023-10-09T02:21:56;6.63;;;3.65;;
70312;SDS011;57723;51.698;5.344;2023-10-09T02:24:37;10.73;;;3.40;;
70312;SDS011;57723;51.698;5.344;2023-10-09T02:27:19;7.00;;;3.55;;
70312;SDS011;57723;51.698;5.344;2023-10-09T02:30:05;7.27;;;3.20;;
70312;SDS011;57723;51.698;5.344;2023-10-09T02:32:41;6.72;;;3.28;;
70312;SDS011;57723;51.698;5.344;2023-10-09T02:35:08;8.50;;;3.50;;
70312;SDS011;57723;51.698;5.344;2023-10-09T02:37:43;8.43;;;3.28;;
70312;SDS011;57723;51.698;5.344;2023-10-09T02:40:21;6.80;;;3.60;;
70312;SDS011;57723;51.698;5.344;2023-10-09T02:42:52;8.53;;;3.20;;
70312;SDS011;57723;51.698;5.344;2023-10-09T02:45:18;7.93;;;3.00;;
70312;SDS011;57723;51.698;5.344;2023-10-09T02:47:44;5.55;;;3.33;;
70312;SDS011;57723;51.698;5.344;2023-10-09T02:50:13;7.20;;;2.73;;
70312;SDS011;57723;51.698;5.344;2023-10-09T02:52:45;8.43;;;3.05;;
70312;SDS011;57723;51.698;5.344;2023-10-09T02:55:12;8.75;;;3.03;;
70312;SDS011;57723;51.698;5.344;2023-10-09T02:57:50;6.15;;;3.13;;
70312;SDS011;57723;51.698;5.344;2023-10-09T03:00:21;5.85;;;2.85;;
70312;SDS011;57723;51.698;5.344;2023-10-09T03:02:54;9.17;;;3.50;;
70312;SDS011;57723;51.698;5.344;2023-10-09T03:05:23;5.72;;;2.88;;
70312;SDS011;57723;51.698;5.344;2023-10-09T03:07:52;5.90;;;2.80;;
70312;SDS011;57723;51.698;5.344;2023-10-09T03:10:20;6.97;;;3.10;;
70312;SDS011;57723;51.698;5.344;2023-10-09T03:12:46;6.22;;;3.20;;
70312;SDS011;57723;51.698;5.344;2023-10-09T03:15:19;5.47;;;2.90;;
70312;SDS011;57723;51.698;5.344;2023-10-09T03:17:45;6.78;;;3.17;;
70312;SDS011;57723;51.698;5.344;2023-10-09T03:20:12;6.15;;;3.00;;
70312;SDS011;57723;51.698;5.344;2023-10-09T03:22:39;6.43;;;2.80;;
70312;SDS011;57723;51.698;5.344;2023-10-09T03:25:05;5.93;;;2.80;;
70312;SDS011;57723;51.698;5.344;2023-10-09T03:27:38;6.72;;;3.28;;
70312;SDS011;57723;51.698;5.344;2023-10-09T03:30:03;5.40;;;2.60;;
70312;SDS011;57723;51.698;5.344;2023-10-09T03:32:33;4.97;;;2.78;;
70312;SDS011;57723;51.698;5.344;2023-10-09T03:35:04;6.55;;;3.15;;
70312;SDS011;57723;51.698;5.344;2023-10-09T03:37:31;7.90;;;2.50;;
70312;SDS011;57723;51.698;5.344;2023-10-09T03:40:04;6.03;;;2.97;;
70312;SDS011;57723;51.698;5.344;2023-10-09T03:42:32;7.85;;;2.80;;
70312;SDS011;57723;51.698;5.344;2023-10-09T03:45:01;6.65;;;2.80;;
70312;SDS011;57723;51.698;5.344;2023-10-09T03:47:37;5.68;;;2.53;;
70312;SDS011;57723;51.698;5.344;2023-10-09T03:50:09;8.23;;;2.63;;
70312;SDS011;57723;51.698;5.344;2023-10-09T03:52:51;7.82;;;2.88;;
70312;SDS011;57723;51.698;5.344;2023-10-09T03:55:17;6.95;;;3.10;;
70312;SDS011;57723;51.698;5.344;2023-10-09T03:57:50;6.90;;;3.07;;
70312;SDS011;57723;51.698;5.344;2023-10-09T04:00:15;7.57;;;2.83;;
70312;SDS011;57723;51.698;5.344;2023-10-09T04:02:44;8.38;;;3.20;;
70312;SDS011;57723;51.698;5.344;2023-10-09T04:05:10;7.63;;;3.15;;
70312;SDS011;57723;51.698;5.344;2023-10-09T04:07:38;6.63;;;2.93;;
70312;SDS011;57723;51.698;5.344;2023-10-09T04:10:07;6.72;;;2.83;;
70312;SDS011;57723;51.698;5.344;2023-10-09T04:12:57;6.25;;;2.70;;
70312;SDS011;57723;51.698;5.344;2023-10-09T04:15:23;5.43;;;2.77;;
70312;SDS011;57723;51.698;5.344;2023-10-09T04:17:52;6.13;;;2.80;;
70312;SDS011;57723;51.698;5.344;2023-10-09T04:20:23;6.97;;;2.95;;
70312;SDS011;57723;51.698;5.344;2023-10-09T04:22:48;8.47;;;2.80;;
70312;SDS011;57723;51.698;5.344;2023-10-09T04:25:20;7.78;;;2.83;;
70312;SDS011;57723;51.698;5.344;2023-10-09T04:27:58;5.97;;;2.80;;
70312;SDS011;57723;51.698;5.344;2023-10-09T04:30:40;6.67;;;2.90;;
70312;SDS011;57723;51.698;5.344;2023-10-09T04:33:07;7.57;;;3.25;;
70312;SDS011;57723;51.698;5.344;2023-10-09T04:35:53;6.60;;;2.70;;
70312;SDS011;57723;51.698;5.344;2023-10-09T04:38:37;5.47;;;2.70;;
70312;SDS011;57723;51.698;5.344;2023-10-09T04:41:09;9.07;;;2.80;;
70312;SDS011;57723;51.698;5.344;2023-10-09T04:43:35;9.13;;;3.03;;
70312;SDS011;57723;51.698;5.344;2023-10-09T04:46:00;10.60;;;3.10;;
70312;SDS011;57723;51.698;5.344;2023-10-09T04:48:41;6.07;;;2.87;;
70312;SDS011;57723;51.698;5.344;2023-10-09T04:51:17;5.55;;;2.70;;
70312;SDS011;57723;51.698;5.344;2023-10-09T04:53:46;11.73;;;2.80;;
70312;SDS011;57723;51.698;5.344;2023-10-09T04:56:30;6.80;;;2.75;;
70312;SDS011;57723;51.698;5.344;2023-10-09T04:58:58;6.72;;;2.92;;
70312;SDS011;57723;51.698;5.344;2023-10-09T05:01:29;6.97;;;2.77;;
70312;SDS011;57723;51.698;5.344;2023-10-09T05:04:08;6.78;;;2.67;;
70312;SDS011;57723;51.698;5.344;2023-10-09T05:06:43;11.07;;;6.20;;
70312;SDS011;57723;51.698;5.344;2023-10-09T05:09:20;10.27;;;5.82;;
70312;SDS011;57723;51.698;5.344;2023-10-09T05:11:47;18.13;;;4.47;;
70312;SDS011;57723;51.698;5.344;2023-10-09T05:14:19;19.40;;;5.17;;
70312;SDS011;57723;51.698;5.344;2023-10-09T05:17:06;19.83;;;3.97;;
70312;SDS011;57723;51.698;5.344;2023-10-09T05:19:33;16.73;;;4.28;;
70312;SDS011;57723;51.698;5.344;2023-10-09T05:22:10;14.25;;;4.00;;
70312;SDS011;57723;51.698;5.344;2023-10-09T05:24:54;14.45;;;4.15;;
70312;SDS011;57723;51.698;5.344;2023-10-09T05:27:22;15.50;;;3.87;;
70312;SDS011;57723;51.698;5.344;2023-10-09T05:30:11;12.27;;;4.35;;
70312;SDS011;57723;51.698;5.344;2023-10-09T05:32:52;15.90;;;4.82;;
70312;SDS011;57723;51.698;5.344;2023-10-09T05:35:23;12.40;;;3.95;;
70312;SDS011;57723;51.698;5.344;2023-10-09T05:38:27;14.82;;;4.40;;
70312;SDS011;57723;51.698;5.344;2023-10-09T05:40:55;15.90;;;4.53;;
70312;SDS011;57723;51.698;5.344;2023-10-09T05:43:37;17.85;;;4.47;;
70312;SDS011;57723;51.698;5.344;2023-10-09T05:46:21;16.88;;;4.63;;
70312;SDS011;57723;51.698;5.344;2023-10-09T05:49:02;13.18;;;4.20;;
70312;SDS011;57723;51.698;5.344;2023-10-09T05:51:44;13.65;;;4.47;;
70312;SDS011;57723;51.698;5.344;2023-10-09T05:54:18;16.53;;;4.53;;
70312;SDS011;57723;51.698;5.344;2023-10-09T05:57:09;16.85;;;4.00;;
70312;SDS011;57723;51.698;5.344;2023-10-09T05:59:55;12.35;;;4.50;;
70312;SDS011;57723;51.698;5.344;2023-10-09T06:02:44;14.05;;;3.80;;
70312;SDS011;57723;51.698;5.344;2023-10-09T06:05:29;15.80;;;4.85;;
70312;SDS011;57723;51.698;5.344;2023-10-09T06:08:07;12.33;;;3.90;;
70312;SDS011;57723;51.698;5.344;2023-10-09T06:10:33;14.68;;;4.63;;
70312;SDS011;57723;51.698;5.344;2023-10-09T06:13:06;13.10;;;4.97;;
70312;SDS011;57723;51.698;5.344;2023-10-09T06:15:38;14.60;;;4.47;;
70312;SDS011;57723;51.698;5.344;2023-10-09T06:18:15;11.77;;;4.68;;
70312;SDS011;57723;51.698;5.344;2023-10-09T06:20:59;15.68;;;4.75;;
70312;SDS011;57723;51.698;5.344;2023-10-09T06:23:55;13.75;;;4.82;;
70312;SDS011;57723;51.698;5.344;2023-10-09T06:26:55;16.10;;;4.60;;
70312;SDS011;57723;51.698;5.344;2023-10-09T06:29:23;16.05;;;4.43;;
70312;SDS011;57723;51.698;5.344;2023-10-09T06:32:05;10.63;;;4.10;;
70312;SDS011;57723;51.698;5.344;2023-10-09T06:34:56;15.15;;;4.53;;
70312;SDS011;57723;51.698;5.344;2023-10-09T06:37:25;10.95;;;4.47;;
70312;SDS011;57723;51.698;5.344;2023-10-09T06:39:56;11.40;;;4.10;;
70312;SDS011;57723;51.698;5.344;2023-10-09T06:42:31;12.27;;;4.57;;
70312;SDS011;57723;51.698;5.344;2023-10-09T06:44:59;7.97;;;3.67;;
70312;SDS011;57723;51.698;5.344;2023-10-09T06:47:37;11.32;;;4.60;;
70312;SDS011;57723;51.698;5.344;2023-10-09T06:50:21;12.13;;;4.13;;
70312;SDS011;57723;51.698;5.344;2023-10-09T06:52:56;10.50;;;4.45;;
70312;SDS011;57723;51.698;5.344;2023-10-09T06:55:37;12.00;;;4.57;;
70312;SDS011;57723;51.698;5.344;2023-10-09T06:58:28;11.50;;;4.20;;
70312;SDS011;57723;51.698;5.344;2023-10-09T07:01:12;14.60;;;4.68;;
70312;SDS011;57723;51.698;5.344;2023-10-09T07:03:56;10.23;;;4.65;;
70312;SDS011;57723;51.698;5.344;2023-10-09T07:06:40;13.98;;;4.85;;
70312;SDS011;57723;51.698;5.344;2023-10-09T07:09:05;12.50;;;4.57;;
70312;SDS011;57723;51.698;5.344;2023-10-09T07:11:43;11.00;;;4.68;;
70312;SDS011;57723;51.698;5.344;2023-10-09T07:14:10;12.35;;;4.75;;
70312;SDS011;57723;51.698;5.344;2023-10-09T07:17:06;10.43;;;4.40;;
70312;SDS011;57723;51.698;5.344;2023-10-09T07:19:44;8.48;;;4.00;;
70312;SDS011;57723;51.698;5.344;2023-10-09T07:22:12;9.63;;;4.28;;
70312;SDS011;57723;51.698;5.344;2023-10-09T07:24:52;9.88;;;4.13;;
70312;SDS011;57723;51.698;5.344;2023-10-09T07:27:46;9.82;;;4.05;;
70312;SDS011;57723;51.698;5.344;2023-10-09T07:30:14;9.67;;;3.90;;
70312;SDS011;57723;51.698;5.344;2023-10-09T07:33:05;11.13;;;3.78;;
70312;SDS011;57723;51.698;5.344;2023-10-09T07:35:47;9.52;;;3.95;;
70312;SDS011;57723;51.698;5.344;2023-10-09T07:38:26;11.07;;;3.92;;
70312;SDS011;57723;51.698;5.344;2023-10-09T07:40:55;10.63;;;3.63;;
70312;SDS011;57723;51.698;5.344;2023-10-09T07:43:25;7.73;;;3.23;;
70312;SDS011;57723;51.698;5.344;2023-10-09T07:45:54;8.13;;;3.53;;
70312;SDS011;57723;51.698;5.344;2023-10-09T07:48:39;10.40;;;3.58;;
70312;SDS011;57723;51.698;5.344;2023-10-09T07:51:14;9.00;;;3.58;;
70312;SDS011;57723;51.698;5.344;2023-10-09T07:53:39;9.40;;;3.67;;
70312;SDS011;57723;51.698;5.344;2023-10-09T07:56:12;9.25;;;3.70;;
70312;SDS011;57723;51.698;5.344;2023-10-09T07:58:46;9.40;;;3.20;;
70312;SDS011;57723;51.698;5.344;2023-10-09T08:01:12;8.43;;;3.55;;
70312;SDS011;57723;51.698;5.344;2023-10-09T08:03:48;7.22;;;3.45;;
70312;SDS011;57723;51.698;5.344;2023-10-09T08:06:22;7.63;;;2.90;;
70312;SDS011;57723;51.698;5.344;2023-10-09T08:09:18;8.10;;;3.10;;
70312;SDS011;57723;51.698;5.344;2023-10-09T08:12:04;9.52;;;3.70;;
70312;SDS011;57723;51.698;5.344;2023-10-09T08:14:43;8.20;;;3.40;;
70312;SDS011;57723;51.698;5.344;2023-10-09T08:17:10;8.55;;;3.33;;
70312;SDS011;57723;51.698;5.344;2023-10-09T08:19:54;9.30;;;3.20;;
70312;SDS011;57723;51.698;5.344;2023-10-09T08:22:23;8.70;;;3.38;;
70312;SDS011;57723;51.698;5.344;2023-10-09T08:24:48;7.23;;;3.50;;
70312;SDS011;57723;51.698;5.344;2023-10-09T08:27:23;8.15;;;3.35;;
70312;SDS011;57723;51.698;5.344;2023-10-09T08:32:47;7.45;;;2.90;;
70312;SDS011;57723;51.698;5.344;2023-10-09T08:35:37;7.22;;;3.10;;
70312;SDS011;57723;51.698;5.344;2023-10-09T08:38:21;7.57;;;3.17;;
70312;SDS011;57723;51.698;5.344;2023-10-09T08:40:50;6.57;;;3.25;;
70312;SDS011;57723;51.698;5.344;2023-10-09T08:43:19;7.38;;;3.30;;
70312;SDS011;57723;51.698;5.344;2023-10-09T08:45:46;8.73;;;3.60;;
70312;SDS011;57723;51.698;5.344;2023-10-09T08:48:26;6.78;;;3.05;;
70312;SDS011;57723;51.698;5.344;2023-10-09T08:50:52;7.30;;;3.60;;
70312;SDS011;57723;51.698;5.344;2023-10-09T08:53:21;7.85;;;3.30;;
70312;SDS011;57723;51.698;5.344;2023-10-09T08:55:48;10.38;;;3.55;;
70312;SDS011;57723;51.698;5.344;2023-10-09T08:58:14;8.55;;;3.40;;
70312;SDS011;57723;51.698;5.344;2023-10-09T09:00:44;9.32;;;3.40;;
70312;SDS011;57723;51.698;5.344;2023-10-09T09:03:20;8.00;;;3.10;;
70312;SDS011;57723;51.698;5.344;2023-10-09T09:06:01;8.70;;;3.08;;
70312;SDS011;57723;51.698;5.344;2023-10-09T09:08:27;11.68;;;3.30;;
70312;SDS011;57723;51.698;5.344;2023-10-09T09:13:46;6.47;;;3.03;;
70312;SDS011;57723;51.698;5.344;2023-10-09T09:16:15;6.47;;;2.90;;
70312;SDS011;57723;51.698;5.344;2023-10-09T09:18:55;7.68;;;2.97;;
70312;SDS011;57723;51.698;5.344;2023-10-09T09:21:30;7.20;;;3.30;;
70312;SDS011;57723;51.698;5.344;2023-10-09T09:24:02;6.35;;;2.90;;
70312;SDS011;57723;51.698;5.344;2023-10-09T09:26:40;9.02;;;3.20;;
70312;SDS011;57723;51.698;5.344;2023-10-09T09:29:12;8.80;;;3.40;;
70312;SDS011;57723;51.698;5.344;2023-10-09T09:31:51;6.65;;;3.10;;
70312;SDS011;57723;51.698;5.344;2023-10-09T09:34:17;6.10;;;2.90;;
70312;SDS011;57723;51.698;5.344;2023-10-09T09:36:54;8.48;;;3.00;;
70312;SDS011;57723;51.698;5.344;2023-10-09T09:39:23;7.57;;;3.22;;
70312;SDS011;57723;51.698;5.344;2023-10-09T09:41:56;8.13;;;3.40;;
70312;SDS011;57723;51.698;5.344;2023-10-09T09:44:22;5.95;;;3.28;;
70312;SDS011;57723;51.698;5.344;2023-10-09T09:46:51;6.57;;;3.00;;
70312;SDS011;57723;51.698;5.344;2023-10-09T09:49:20;6.97;;;2.72;;
70312;SDS011;57723;51.698;5.344;2023-10-09T09:51:49;7.35;;;2.90;;
70312;SDS011;57723;51.698;5.344;2023-10-09T09:54:14;7.87;;;3.00;;
70312;SDS011;57723;51.698;5.344;2023-10-09T09:56:43;7.25;;;3.13;;
70312;SDS011;57723;51.698;5.344;2023-10-09T09:59:09;6.40;;;2.95;;
70312;SDS011;57723;51.698;5.344;2023-10-09T10:01:38;7.05;;;3.22;;
70312;SDS011;57723;51.698;5.344;2023-10-09T10:04:15;6.50;;;3.00;;
70312;SDS011;57723;51.698;5.344;2023-10-09T10:06:45;9.00;;;3.30;;
70312;SDS011;57723;51.698;5.344;2023-10-09T10:12:03;7.50;;;2.95;;
70312;SDS011;57723;51.698;5.344;2023-10-09T10:14:54;6.88;;;2.85;;
70312;SDS011;57723;51.698;5.344;2023-10-09T10:17:24;6.33;;;2.60;;
70312;SDS011;57723;51.698;5.344;2023-10-09T10:25:41;6.10;;;2.92;;
70312;SDS011;57723;51.698;5.344;2023-10-09T10:28:25;6.47;;;2.70;;
70312;SDS011;57723;51.698;5.344;2023-10-09T10:31:04;6.07;;;2.70;;
70312;SDS011;57723;51.698;5.344;2023-10-09T10:36:21;6.45;;;3.10;;
70312;SDS011;57723;51.698;5.344;2023-10-09T10:38:59;9.63;;;2.80;;
70312;SDS011;57723;51.698;5.344;2023-10-09T10:41:30;6.38;;;2.67;;
70312;SDS011;57723;51.698;5.344;2023-10-09T10:44:03;6.77;;;2.97;;
70312;SDS011;57723;51.698;5.344;2023-10-09T10:46:47;5.90;;;2.80;;
70312;SDS011;57723;51.698;5.344;2023-10-09T10:49:19;7.78;;;2.70;;
70312;SDS011;57723;51.698;5.344;2023-10-09T10:51:48;8.40;;;3.30;;
70312;SDS011;57723;51.698;5.344;2023-10-09T10:54:24;7.35;;;3.28;;
70312;SDS011;57723;51.698;5.344;2023-10-09T10:56:59;11.60;;;3.10;;
70312;SDS011;57723;51.698;5.344;2023-10-09T10:59:29;6.60;;;2.90;;
70312;SDS011;57723;51.698;5.344;2023-10-09T11:02:10;7.18;;;3.03;;
70312;SDS011;57723;51.698;5.344;2023-10-09T11:04:36;9.23;;;3.55;;
70312;SDS011;57723;51.698;5.344;2023-10-09T11:07:08;8.95;;;2.90;;
70312;SDS011;57723;51.698;5.344;2023-10-09T11:09:55;7.93;;;2.83;;
70312;SDS011;57723;51.698;5.344;2023-10-09T11:12:29;8.00;;;3.25;;
70312;SDS011;57723;51.698;5.344;2023-10-09T11:15:13;7.53;;;3.03;;
70312;SDS011;57723;51.698;5.344;2023-10-09T11:18:03;9.27;;;3.60;;
70312;SDS011;57723;51.698;5.344;2023-10-09T11:20:52;9.30;;;3.35;;
70312;SDS011;57723;51.698;5.344;2023-10-09T11:23:43;5.90;;;3.17;;
70312;SDS011;57723;51.698;5.344;2023-10-09T11:26:27;7.95;;;3.20;;
70312;SDS011;57723;51.698;5.344;2023-10-09T11:34:24;5.82;;;2.90;;
70312;SDS011;57723;51.698;5.344;2023-10-09T11:39:34;7.10;;;3.00;;
70312;SDS011;57723;51.698;5.344;2023-10-09T11:42:00;8.32;;;3.30;;
70312;SDS011;57723;51.698;5.344;2023-10-09T11:44:38;9.02;;;2.90;;
70312;SDS011;57723;51.698;5.344;2023-10-09T11:47:05;7.28;;;3.38;;
70312;SDS011;57723;51.698;5.344;2023-10-09T11:49:56;7.53;;;3.40;;
70312;SDS011;57723;51.698;5.344;2023-10-09T11:55:37;10.32;;;3.30;;
70312;SDS011;57723;51.698;5.344;2023-10-09T11:58:21;10.15;;;3.17;;
70312;SDS011;57723;51.698;5.344;2023-10-09T12:00:57;8.85;;;3.47;;
70312;SDS011;57723;51.698;5.344;2023-10-09T12:03:30;10.77;;;3.67;;
70312;SDS011;57723;51.698;5.344;2023-10-09T12:05:59;9.30;;;3.30;;
70312;SDS011;57723;51.698;5.344;2023-10-09T12:08:37;8.30;;;3.17;;
70312;SDS011;57723;51.698;5.344;2023-10-09T12:11:08;10.13;;;3.58;;
70312;SDS011;57723;51.698;5.344;2023-10-09T12:13:34;7.30;;;3.20;;
70312;SDS011;57723;51.698;5.344;2023-10-09T12:16:07;9.40;;;3.37;;
70312;SDS011;57723;51.698;5.344;2023-10-09T12:18:42;7.57;;;2.97;;
70312;SDS011;57723;51.698;5.344;2023-10-09T12:21:08;5.83;;;2.90;;
70312;SDS011;57723;51.698;5.344;2023-10-09T12:23:41;7.90;;;3.15;;
70312;SDS011;57723;51.698;5.344;2023-10-09T12:26:14;7.97;;;2.95;;
70312;SDS011;57723;51.698;5.344;2023-10-09T12:28:49;7.90;;;3.00;;
70312;SDS011;57723;51.698;5.344;2023-10-09T12:31:15;8.23;;;3.10;;
70312;SDS011;57723;51.698;5.344;2023-10-09T12:33:43;7.47;;;3.08;;
70312;SDS011;57723;51.698;5.344;2023-10-09T12:36:14;7.30;;;3.10;;
70312;SDS011;57723;51.698;5.344;2023-10-09T12:38:45;6.63;;;2.90;;
70312;SDS011;57723;51.698;5.344;2023-10-09T12:41:15;6.25;;;2.80;;
70312;SDS011;57723;51.698;5.344;2023-10-09T12:43:56;7.88;;;3.13;;
70312;SDS011;57723;51.698;5.344;2023-10-09T12:46:24;7.45;;;3.13;;
70312;SDS011;57723;51.698;5.344;2023-10-09T12:48:53;6.70;;;2.80;;
70312;SDS011;57723;51.698;5.344;2023-10-09T12:51:27;5.45;;;2.72;;
70312;SDS011;57723;51.698;5.344;2023-10-09T12:53:56;6.93;;;3.20;;
70312;SDS011;57723;51.698;5.344;2023-10-09T12:56:26;6.72;;;2.90;;
70312;SDS011;57723;51.698;5.344;2023-10-09T12:59:12;6.60;;;2.70;;
70312;SDS011;57723;51.698;5.344;2023-10-09T13:01:43;5.67;;;3.00;;
70312;SDS011;57723;51.698;5.344;2023-10-09T13:04:12;6.53;;;2.75;;
70312;SDS011;57723;51.698;5.344;2023-10-09T13:06:44;8.73;;;2.80;;
70312;SDS011;57723;51.698;5.344;2023-10-09T13:09:14;6.65;;;3.00;;
70312;SDS011;57723;51.698;5.344;2023-10-09T13:12:01;6.32;;;3.00;;
70312;SDS011;57723;51.698;5.344;2023-10-09T13:14:27;5.37;;;2.80;;
70312;SDS011;57723;51.698;5.344;2023-10-09T13:16:55;6.82;;;3.40;;
70312;SDS011;57723;51.698;5.344;2023-10-09T13:19:21;6.25;;;2.85;;
70312;SDS011;57723;51.698;5.344;2023-10-09T13:21:49;5.55;;;2.53;;
70312;SDS011;57723;51.698;5.344;2023-10-09T13:24:32;5.07;;;3.00;;
70312;SDS011;57723;51.698;5.344;2023-10-09T13:26:58;6.43;;;3.00;;
70312;SDS011;57723;51.698;5.344;2023-10-09T13:29:29;5.72;;;3.10;;
70312;SDS011;57723;51.698;5.344;2023-10-09T13:31:58;6.30;;;2.70;;
70312;SDS011;57723;51.698;5.344;2023-10-09T13:34:27;8.87;;;2.90;;
70312;SDS011;57723;51.698;5.344;2023-10-09T13:36:53;6.25;;;3.03;;
70312;SDS011;57723;51.698;5.344;2023-10-09T13:39:24;5.20;;;2.83;;
70312;SDS011;57723;51.698;5.344;2023-10-09T13:41:57;5.20;;;2.75;;
70312;SDS011;57723;51.698;5.344;2023-10-09T13:44:30;5.55;;;2.83;;
70312;SDS011;57723;51.698;5.344;2023-10-09T13:46:58;7.65;;;3.00;;
70312;SDS011;57723;51.698;5.344;2023-10-09T13:49:24;7.05;;;2.67;;
70312;SDS011;57723;51.698;5.344;2023-10-09T13:51:57;5.97;;;2.97;;
70312;SDS011;57723;51.698;5.344;2023-10-09T13:54:23;6.40;;;3.08;;
70312;SDS011;57723;51.698;5.344;2023-10-09T13:57:05;5.85;;;2.95;;
70312;SDS011;57723;51.698;5.344;2023-10-09T13:59:34;7.80;;;2.67;;
70312;SDS011;57723;51.698;5.344;2023-10-09T14:02:07;6.07;;;2.75;;
70312;SDS011;57723;51.698;5.344;2023-10-09T14:04:42;6.57;;;2.57;;
70312;SDS011;57723;51.698;5.344;2023-10-09T14:07:08;6.13;;;2.58;;
70312;SDS011;57723;51.698;5.344;2023-10-09T14:09:37;7.80;;;2.83;;
70312;SDS011;57723;51.698;5.344;2023-10-09T14:12:38;6.18;;;2.92;;
70312;SDS011;57723;51.698;5.344;2023-10-09T14:15:11;8.17;;;2.73;;
70312;SDS011;57723;51.698;5.344;2023-10-09T14:17:52;6.70;;;2.65;;
70312;SDS011;57723;51.698;5.344;2023-10-09T14:20:21;7.57;;;3.10;;
70312;SDS011;57723;51.698;5.344;2023-10-09T14:23:16;7.05;;;3.33;;
70312;SDS011;57723;51.698;5.344;2023-10-09T14:26:05;9.95;;;3.38;;
70312;SDS011;57723;51.698;5.344;2023-10-09T14:28:38;7.17;;;3.00;;
70312;SDS011;57723;51.698;5.344;2023-10-09T14:31:06;5.43;;;2.88;;
70312;SDS011;57723;51.698;5.344;2023-10-09T14:33:40;5.03;;;2.92;;
70312;SDS011;57723;51.698;5.344;2023-10-09T14:36:06;6.57;;;2.78;;
70312;SDS011;57723;51.698;5.344;2023-10-09T14:38:32;8.40;;;3.27;;
70312;SDS011;57723;51.698;5.344;2023-10-09T14:41:03;5.63;;;2.90;;
70312;SDS011;57723;51.698;5.344;2023-10-09T14:43:31;6.70;;;2.88;;
70312;SDS011;57723;51.698;5.344;2023-10-09T14:45:59;8.47;;;3.23;;
70312;SDS011;57723;51.698;5.344;2023-10-09T14:48:30;5.77;;;3.00;;
70312;SDS011;57723;51.698;5.344;2023-10-09T14:51:02;7.53;;;3.20;;
70312;SDS011;57723;51.698;5.344;2023-10-09T14:53:30;8.57;;;3.03;;
70312;SDS011;57723;51.698;5.344;2023-10-09T14:55:56;6.30;;;3.05;;
70312;SDS011;57723;51.698;5.344;2023-10-09T14:58:21;7.27;;;3.10;;
70312;SDS011;57723;51.698;5.344;2023-10-09T15:00:50;7.68;;;3.28;;
70312;SDS011;57723;51.698;5.344;2023-10-09T15:03:19;8.02;;;3.45;;
70312;SDS011;57723;51.698;5.344;2023-10-09T15:05:47;7.32;;;3.47;;
70312;SDS011;57723;51.698;5.344;2023-10-09T15:08:17;8.27;;;3.50;;
70312;SDS011;57723;51.698;5.344;2023-10-09T15:10:46;6.43;;;3.40;;
70312;SDS011;57723;51.698;5.344;2023-10-09T15:13:14;7.93;;;3.80;;
70312;SDS011;57723;51.698;5.344;2023-10-09T15:15:44;9.50;;;3.72;;
70312;SDS011;57723;51.698;5.344;2023-10-09T15:18:14;10.77;;;4.07;;
70312;SDS011;57723;51.698;5.344;2023-10-09T15:20:40;7.80;;;3.83;;
70312;SDS011;57723;51.698;5.344;2023-10-09T15:23:08;9.70;;;4.18;;
70312;SDS011;57723;51.698;5.344;2023-10-09T15:25:36;9.20;;;4.50;;
70312;SDS011;57723;51.698;5.344;2023-10-09T15:28:07;8.60;;;3.90;;
70312;SDS011;57723;51.698;5.344;2023-10-09T15:30:36;8.95;;;4.13;;
70312;SDS011;57723;51.698;5.344;2023-10-09T15:33:06;11.57;;;3.67;;
70312;SDS011;57723;51.698;5.344;2023-10-09T15:35:32;10.50;;;4.32;;
70312;SDS011;57723;51.698;5.344;2023-10-09T15:38:03;9.82;;;4.28;;
70312;SDS011;57723;51.698;5.344;2023-10-09T15:40:29;8.05;;;3.58;;
70312;SDS011;57723;51.698;5.344;2023-10-09T15:43:04;9.93;;;3.60;;
70312;SDS011;57723;51.698;5.344;2023-10-09T15:45:35;9.13;;;4.23;;
70312;SDS011;57723;51.698;5.344;2023-10-09T15:48:15;11.00;;;4.35;;
70312;SDS011;57723;51.698;5.344;2023-10-09T15:53:37;8.35;;;4.15;;
70312;SDS011;57723;51.698;5.344;2023-10-09T15:56:06;7.05;;;3.65;;